Time,TemperatureF,DewpointF,PressureIn,WindDirection,WindDirectionDegrees,WindSpeedMPH,WindSpeedGustMPH,Humidity,HourlyPrecipIn,Conditions,Clouds,dailyrainin,SoftwareType,DateUTC
2013-02-21 00:11:00,6.0,-6.0,30.43,NE,50,0.0,1.0,57,0.00,,,0.00,,2013-02-21 06:11:00,
2013-02-21 00:21:00,6.0,-6.0,30.44,NE,50,0.0,0.0,56,0.00,,,0.00,,2013-02-21 06:21:00,
2013-02-21 00:31:00,6.0,-6.0,30.44,NE,50,0.0,0.0,56,0.00,,,0.00,,2013-02-21 06:31:00,
2013-02-21 00:41:00,6.0,-6.0,30.44,NE,50,0.0,0.0,56,0.00,,,0.00,,2013-02-21 06:41:00,
2013-02-21 00:51:00,6.0,-6.0,30.44,NE,50,0.0,0.0,56,0.00,,,0.00,,2013-02-21 06:51:00,
2013-02-21 01:01:00,6.0,-6.0,30.44,NE,50,0.0,0.0,56,0.00,,,0.00,,2013-02-21 07:01:00,
2013-02-21 01:11:00,5.0,-7.0,30.44,NE,50,0.0,0.0,56,0.00,,,0.00,,2013-02-21 07:11:00,
2013-02-21 01:21:00,5.0,-7.0,30.44,NE,50,0.0,0.0,56,0.00,,,0.00,,2013-02-21 07:21:00,
2013-02-21 01:42:00,4.0,-8.0,30.45,NE,50,0.0,0.0,57,0.00,,,0.00,,2013-02-21 07:42:00,
2013-02-21 01:52:00,4.0,-8.0,30.45,NE,50,0.0,0.0,57,0.00,,,0.00,,2013-02-21 07:52:00,
2013-02-21 02:11:00,4.0,-7.0,30.46,NE,50,0.0,0.0,58,0.00,,,0.00,,2013-02-21 08:11:00,
2013-02-21 02:21:00,4.0,-7.0,30.46,NE,50,0.0,0.0,58,0.00,,,0.00,,2013-02-21 08:21:00,
2013-02-21 02:31:00,4.0,-7.0,30.46,NE,50,0.0,0.0,58,0.00,,,0.00,,2013-02-21 08:31:00,
2013-02-21 02:42:00,4.0,-7.0,30.46,NE,50,0.0,0.0,58,0.00,,,0.00,,2013-02-21 08:42:00,
2013-02-21 02:52:00,3.0,-8.0,30.46,NE,50,0.0,1.0,59,0.00,,,0.00,,2013-02-21 08:52:00,
2013-02-21 03:01:00,3.0,-8.0,30.46,NE,50,0.0,1.0,59,0.00,,,0.00,,2013-02-21 09:01:00,
2013-02-21 03:11:00,3.0,-8.0,30.46,NE,50,0.0,1.0,59,0.00,,,0.00,,2013-02-21 09:11:00,
2013-02-21 03:22:00,3.0,-8.0,30.46,NE,50,0.0,0.0,60,0.00,,,0.00,,2013-02-21 09:22:00,
2013-02-21 03:31:00,3.0,-8.0,30.46,NE,50,0.0,0.0,60,0.00,,,0.00,,2013-02-21 09:31:00,
2013-02-21 03:42:00,3.0,-7.0,30.47,NE,50,0.0,0.0,62,0.00,,,0.00,,2013-02-21 09:42:00,
2013-02-21 03:52:00,3.0,-7.0,30.47,NE,50,0.0,0.0,62,0.00,,,0.00,,2013-02-21 09:52:00,
2013-02-21 04:01:00,3.0,-7.0,30.47,NE,50,0.0,0.0,62,0.00,,,0.00,,2013-02-21 10:01:00,
2013-02-21 04:11:00,3.0,-7.0,30.47,NE,50,0.0,0.0,62,0.00,,,0.00,,2013-02-21 10:11:00,
2013-02-21 04:21:00,2.0,-7.0,30.47,NE,50,0.0,2.0,64,0.00,,,0.00,,2013-02-21 10:21:00,
2013-02-21 04:31:00,2.0,-7.0,30.47,NE,50,0.0,2.0,64,0.00,,,0.00,,2013-02-21 10:31:00,
2013-02-21 04:41:00,2.0,-7.0,30.47,NE,50,0.0,2.0,64,0.00,,,0.00,,2013-02-21 10:41:00,
2013-02-21 04:51:00,3.0,-6.0,30.46,NE,50,0.0,1.0,65,0.00,,,0.00,,2013-02-21 10:51:00,
2013-02-21 05:01:00,3.0,-6.0,30.46,NE,50,0.0,1.0,65,0.00,,,0.00,,2013-02-21 11:01:00,
2013-02-21 05:11:00,3.0,-6.0,30.46,NE,50,0.0,1.0,65,0.00,,,0.00,,2013-02-21 11:11:00,
2013-02-21 05:21:00,2.0,-7.0,30.45,NE,50,0.0,1.0,65,0.00,,,0.00,,2013-02-21 11:21:00,
2013-02-21 05:31:00,2.0,-7.0,30.45,NE,50,0.0,1.0,65,0.00,,,0.00,,2013-02-21 11:31:00,
2013-02-21 05:41:00,2.0,-7.0,30.45,NE,50,0.0,1.0,65,0.00,,,0.00,,2013-02-21 11:41:00,
2013-02-21 05:52:00,2.0,-6.0,30.43,NE,50,0.0,1.0,67,0.00,,,0.00,,2013-02-21 11:52:00,
2013-02-21 06:01:00,2.0,-6.0,30.43,NE,50,0.0,1.0,67,0.00,,,0.00,,2013-02-21 12:01:00,
2013-02-21 06:11:00,2.0,-6.0,30.43,NE,50,0.0,1.0,67,0.00,,,0.00,,2013-02-21 12:11:00,
2013-02-21 06:21:00,2.0,-6.0,30.38,NE,37,1.0,4.0,67,0.00,,,0.00,,2013-02-21 12:21:00,
2013-02-21 06:32:00,2.0,-6.0,30.38,NE,37,1.0,4.0,67,0.00,,,0.00,,2013-02-21 12:32:00,
2013-02-21 06:43:00,3.0,-5.0,30.36,NE,37,3.0,15.0,68,0.00,,,0.00,,2013-02-21 12:43:00,
2013-02-21 06:53:00,3.0,-5.0,30.36,NE,37,3.0,15.0,68,0.00,,,0.00,,2013-02-21 12:53:00,
2013-02-21 07:01:00,3.0,-5.0,30.36,NE,37,3.0,15.0,68,0.00,,,0.00,,2013-02-21 13:01:00,
2013-02-21 07:12:00,3.0,-5.0,30.36,NE,37,3.0,15.0,68,0.00,,,0.00,,2013-02-21 13:12:00,
2013-02-21 07:22:00,3.0,-5.0,30.49,ESE,122,0.0,4.0,68,0.00,,,0.00,,2013-02-21 13:22:00,
2013-02-21 07:32:00,3.0,-5.0,30.49,ESE,122,0.0,4.0,68,0.00,,,0.00,,2013-02-21 13:32:00,
2013-02-21 07:42:00,3.0,-5.0,30.49,ESE,122,0.0,4.0,68,0.00,,,0.00,,2013-02-21 13:42:00,
2013-02-21 07:52:00,3.0,-5.0,30.48,ESE,122,0.0,0.0,67,0.00,,,0.00,,2013-02-21 13:52:00,
2013-02-21 08:02:00,3.0,-5.0,30.48,ESE,122,0.0,0.0,67,0.00,,,0.00,,2013-02-21 14:02:00,
2013-02-21 08:11:00,3.0,-5.0,30.48,ESE,122,0.0,0.0,67,0.00,,,0.00,,2013-02-21 14:11:00,
2013-02-21 08:21:00,3.0,-5.0,30.48,ESE,122,0.0,1.0,68,0.00,,,0.00,,2013-02-21 14:21:00,
2013-02-21 08:32:00,3.0,-5.0,30.48,ESE,122,0.0,1.0,68,0.00,,,0.00,,2013-02-21 14:32:00,
2013-02-21 08:42:00,4.0,-4.0,30.45,ESE,119,0.0,1.0,69,0.00,,,0.00,,2013-02-21 14:42:00,
2013-02-21 08:52:00,4.0,-4.0,30.45,ESE,119,0.0,1.0,69,0.00,,,0.00,,2013-02-21 14:52:00,
2013-02-21 09:01:00,4.0,-4.0,30.45,ESE,119,0.0,1.0,69,0.00,,,0.00,,2013-02-21 15:01:00,
2013-02-21 09:12:00,4.0,-4.0,30.45,ESE,119,0.0,1.0,69,0.00,,,0.00,,2013-02-21 15:12:00,
2013-02-21 09:21:00,6.0,-3.0,30.45,NE,34,1.0,3.0,67,0.00,,,0.00,,2013-02-21 15:21:00,
2013-02-21 09:32:00,6.0,-3.0,30.45,NE,34,1.0,3.0,67,0.00,,,0.00,,2013-02-21 15:32:00,
2013-02-21 09:42:00,6.0,-3.0,30.45,NE,34,1.0,3.0,67,0.00,,,0.00,,2013-02-21 15:42:00,
2013-02-21 09:52:00,9.0,-1.0,30.44,NE,42,0.0,3.0,63,0.00,,,0.00,,2013-02-21 15:52:00,
2013-02-21 10:01:00,9.0,-1.0,30.44,NE,42,0.0,3.0,63,0.00,,,0.00,,2013-02-21 16:01:00,
2013-02-21 10:12:00,10.0,-1.0,30.43,ENE,74,4.0,9.0,59,0.00,,,0.00,,2013-02-21 16:12:00,
2013-02-21 10:21:00,10.0,-1.0,30.43,ENE,74,4.0,9.0,59,0.00,,,0.00,,2013-02-21 16:21:00,
2013-02-21 10:32:00,10.0,-1.0,30.43,ENE,74,4.0,9.0,59,0.00,,,0.00,,2013-02-21 16:32:00,
2013-02-21 10:42:00,12.0,-1.0,30.42,ENE,58,3.0,9.0,55,0.00,,,0.00,,2013-02-21 16:42:00,
2013-02-21 10:52:00,12.0,-1.0,30.42,ENE,58,3.0,9.0,55,0.00,,,0.00,,2013-02-21 16:52:00,
2013-02-21 11:01:00,12.0,-1.0,30.42,ENE,58,3.0,9.0,55,0.00,,,0.00,,2013-02-21 17:01:00,
2013-02-21 11:11:00,13.0,-1.0,30.43,ENE,71,1.0,7.0,53,0.00,,,0.00,,2013-02-21 17:11:00,
2013-02-21 11:21:00,13.0,-1.0,30.43,ENE,71,1.0,7.0,53,0.00,,,0.00,,2013-02-21 17:21:00,
2013-02-21 11:32:00,13.0,-1.0,30.43,ENE,71,1.0,7.0,53,0.00,,,0.00,,2013-02-21 17:32:00,
2013-02-21 11:42:00,13.0,-1.0,30.43,ENE,71,1.0,7.0,53,0.00,,,0.00,,2013-02-21 17:42:00,
2013-02-21 11:52:00,15.0,0.0,30.42,ENE,68,2.0,7.0,50,0.00,,,0.00,,2013-02-21 17:52:00,
2013-02-21 12:01:00,15.0,0.0,30.42,ENE,68,2.0,7.0,50,0.00,,,0.00,,2013-02-21 18:01:00,
2013-02-21 12:11:00,15.0,0.0,30.42,ENE,68,2.0,7.0,50,0.00,,,0.00,,2013-02-21 18:11:00,
2013-02-21 12:22:00,16.0,1.0,30.41,ENE,61,1.0,7.0,50,0.00,,,0.00,,2013-02-21 18:22:00,
2013-02-21 12:31:00,16.0,1.0,30.41,ENE,61,1.0,7.0,50,0.00,,,0.00,,2013-02-21 18:31:00,
2013-02-21 12:42:00,16.0,1.0,30.41,ENE,61,1.0,7.0,50,0.00,,,0.00,,2013-02-21 18:42:00,
2013-02-21 12:52:00,17.0,1.0,30.40,NNE,33,3.0,9.0,48,0.00,,,0.00,,2013-02-21 18:52:00,
2013-02-21 13:01:00,17.0,1.0,30.40,NNE,33,3.0,9.0,48,0.00,,,0.00,,2013-02-21 19:01:00,
2013-02-21 13:12:00,17.0,1.0,30.40,NNE,33,3.0,9.0,48,0.00,,,0.00,,2013-02-21 19:12:00,
2013-02-21 13:21:00,18.0,1.0,30.37,NNE,31,3.0,8.0,46,0.00,,,0.00,,2013-02-21 19:21:00,
2013-02-21 13:31:00,18.0,1.0,30.37,NNE,31,3.0,8.0,46,0.00,,,0.00,,2013-02-21 19:31:00,
2013-02-21 13:42:00,18.0,1.0,30.37,NNE,31,3.0,8.0,46,0.00,,,0.00,,2013-02-21 19:42:00,
2013-02-21 13:52:00,18.0,0.0,30.36,NE,46,4.0,12.0,44,0.00,,,0.00,,2013-02-21 19:52:00,
2013-02-21 14:11:00,19.0,1.0,30.35,NE,48,1.0,11.0,44,0.00,,,0.00,,2013-02-21 20:11:00,
2013-02-21 14:21:00,19.0,1.0,30.35,NE,48,1.0,11.0,44,0.00,,,0.00,,2013-02-21 20:21:00,
2013-02-21 14:31:00,19.0,1.0,30.35,NE,48,1.0,11.0,44,0.00,,,0.00,,2013-02-21 20:31:00,
2013-02-21 14:42:00,19.0,1.0,30.35,NE,48,1.0,11.0,44,0.00,,,0.00,,2013-02-21 20:42:00,
2013-02-21 14:53:00,20.0,1.0,30.33,NE,54,1.0,9.0,43,0.00,,,0.00,,2013-02-21 20:53:00,
2013-02-21 15:02:00,20.0,1.0,30.33,NE,54,1.0,9.0,43,0.00,,,0.00,,2013-02-21 21:02:00,
2013-02-21 15:11:00,20.0,1.0,30.32,NE,47,5.0,12.0,42,0.00,,,0.00,,2013-02-21 21:11:00,
2013-02-21 15:21:00,20.0,1.0,30.32,NE,47,5.0,12.0,42,0.00,,,0.00,,2013-02-21 21:21:00,
2013-02-21 15:42:00,21.0,2.0,30.30,ENE,66,3.0,13.0,42,0.00,,,0.00,,2013-02-21 21:42:00,
2013-02-21 15:52:00,21.0,2.0,30.30,ENE,66,3.0,13.0,42,0.00,,,0.00,,2013-02-21 21:52:00,
2013-02-21 16:01:00,21.0,2.0,30.30,ENE,66,3.0,13.0,42,0.00,,,0.00,,2013-02-21 22:01:00,
2013-02-21 16:11:00,21.0,2.0,30.30,ENE,66,3.0,13.0,42,0.00,,,0.00,,2013-02-21 22:11:00,
2013-02-21 16:21:00,21.0,2.0,30.29,NE,36,2.0,11.0,42,0.00,,,0.00,,2013-02-21 22:21:00,
2013-02-21 16:42:00,21.0,2.0,30.29,NE,37,1.0,11.0,43,0.00,,,0.00,,2013-02-21 22:42:00,
2013-02-21 16:52:00,21.0,2.0,30.29,NE,37,1.0,11.0,43,0.00,,,0.00,,2013-02-21 22:52:00,
2013-02-21 17:01:00,21.0,2.0,30.29,NE,37,1.0,11.0,43,0.00,,,0.00,,2013-02-21 23:01:00,
2013-02-21 17:11:00,21.0,2.0,30.29,NE,37,1.0,11.0,43,0.00,,,0.00,,2013-02-21 23:11:00,
2013-02-21 17:21:00,21.0,3.0,30.27,NE,48,2.0,12.0,44,0.00,,,0.00,,2013-02-21 23:21:00,
2013-02-21 17:31:00,21.0,3.0,30.27,NE,48,2.0,12.0,44,0.00,,,0.00,,2013-02-21 23:31:00,
2013-02-21 17:42:00,21.0,3.0,30.27,NE,48,2.0,12.0,44,0.00,,,0.00,,2013-02-21 23:42:00,
2013-02-21 17:52:00,21.0,3.0,30.26,NE,45,1.0,5.0,45,0.00,,,0.00,,2013-02-21 23:52:00,
2013-02-21 18:01:00,21.0,3.0,30.26,NE,45,1.0,5.0,45,0.00,,,0.00,,2013-02-22 00:01:00,
2013-02-21 18:11:00,21.0,3.0,30.26,NE,45,1.0,5.0,45,0.00,,,0.00,,2013-02-22 00:11:00,
2013-02-21 18:21:00,21.0,4.0,30.27,NE,42,0.0,4.0,46,0.00,,,0.00,,2013-02-22 00:21:00,
2013-02-21 18:31:00,21.0,4.0,30.27,NE,42,0.0,4.0,46,0.00,,,0.00,,2013-02-22 00:31:00,
2013-02-21 18:42:00,21.0,4.0,30.27,NE,42,0.0,4.0,46,0.00,,,0.00,,2013-02-22 00:42:00,
2013-02-21 18:52:00,21.0,4.0,30.25,NE,47,0.0,3.0,46,0.00,,,0.00,,2013-02-22 00:52:00,
2013-02-21 19:01:00,21.0,4.0,30.25,NE,47,0.0,3.0,46,0.00,,,0.00,,2013-02-22 01:01:00,
2013-02-21 19:11:00,21.0,4.0,30.25,NE,47,0.0,3.0,46,0.00,,,0.00,,2013-02-22 01:11:00,
2013-02-21 19:21:00,21.0,4.0,30.24,NE,46,1.0,2.0,48,0.00,,,0.00,,2013-02-22 01:21:00,
2013-02-21 19:32:00,21.0,4.0,30.24,NE,46,1.0,2.0,48,0.00,,,0.00,,2013-02-22 01:32:00,
2013-02-21 19:42:00,21.0,4.0,30.24,NE,46,1.0,2.0,48,0.00,,,0.00,,2013-02-22 01:42:00,
2013-02-21 19:52:00,21.0,5.0,30.22,NE,46,2.0,4.0,49,0.00,,,0.00,,2013-02-22 01:52:00,
2013-02-21 20:02:00,21.0,5.0,30.22,NE,46,2.0,4.0,49,0.00,,,0.00,,2013-02-22 02:02:00,
2013-02-21 20:11:00,21.0,5.0,30.21,NE,44,0.0,6.0,50,0.00,,,0.00,,2013-02-22 02:11:00,
2013-02-21 20:21:00,21.0,5.0,30.21,NE,44,0.0,6.0,50,0.00,,,0.00,,2013-02-22 02:21:00,
2013-02-21 20:31:00,21.0,5.0,30.21,NE,44,0.0,6.0,50,0.00,,,0.00,,2013-02-22 02:31:00,
2013-02-21 20:42:00,22.0,7.0,30.21,NNE,28,1.0,7.0,51,0.00,,,0.00,,2013-02-22 02:42:00,
2013-02-21 20:52:00,22.0,7.0,30.21,NNE,28,1.0,7.0,51,0.00,,,0.00,,2013-02-22 02:52:00,
2013-02-21 21:01:00,22.0,7.0,30.21,NNE,28,1.0,7.0,51,0.00,,,0.00,,2013-02-22 03:01:00,
2013-02-21 21:11:00,23.0,9.0,30.20,NE,40,2.0,6.0,54,0.00,,,0.00,,2013-02-22 03:11:00,
2013-02-21 21:21:00,23.0,9.0,30.20,NE,40,2.0,6.0,54,0.00,,,0.00,,2013-02-22 03:21:00,
2013-02-21 21:31:00,23.0,9.0,30.20,NE,40,2.0,6.0,54,0.00,,,0.00,,2013-02-22 03:31:00,
2013-02-21 21:42:00,23.0,9.0,30.20,NE,40,2.0,6.0,54,0.00,,,0.00,,2013-02-22 03:42:00,
2013-02-21 21:52:00,23.0,9.0,30.20,NE,39,1.0,10.0,55,0.00,,,0.00,,2013-02-22 03:52:00,
2013-02-21 22:01:00,23.0,9.0,30.20,NE,39,1.0,10.0,55,0.00,,,0.00,,2013-02-22 04:01:00,
2013-02-21 22:11:00,22.0,10.0,30.19,NE,35,6.0,14.0,58,0.00,,,0.00,,2013-02-22 04:11:00,
2013-02-21 22:21:00,22.0,10.0,30.19,NE,35,6.0,14.0,58,0.00,,,0.00,,2013-02-22 04:21:00,
2013-02-21 22:32:00,22.0,10.0,30.19,NE,35,6.0,14.0,58,0.00,,,0.00,,2013-02-22 04:32:00,
2013-02-21 22:42:00,22.0,11.0,30.17,NNE,25,1.0,7.0,61,0.00,,,0.00,,2013-02-22 04:42:00,
2013-02-21 22:52:00,22.0,11.0,30.17,NNE,25,1.0,7.0,61,0.00,,,0.00,,2013-02-22 04:52:00,
2013-02-21 23:01:00,22.0,11.0,30.17,NNE,25,1.0,7.0,61,0.00,,,0.00,,2013-02-22 05:01:00,
2013-02-21 23:12:00,22.0,11.0,30.17,NNE,25,1.0,7.0,61,0.00,,,0.00,,2013-02-22 05:12:00,
2013-02-21 23:22:00,21.0,11.0,30.14,North,8,7.0,13.0,64,0.00,,,0.00,,2013-02-22 05:22:00,
2013-02-21 23:32:00,21.0,11.0,30.14,North,8,7.0,13.0,64,0.00,,,0.00,,2013-02-22 05:32:00,
2013-02-21 23:42:00,21.0,11.0,30.14,NNE,29,1.0,11.0,66,0.00,,,0.00,,2013-02-22 05:42:00,
2013-02-21 23:52:00,21.0,11.0,30.14,NNE,29,1.0,11.0,66,0.00,,,0.00,,2013-02-22 05:52:00,